createdAt,value
2022-08-26T04:04:10.515Z,70.95
2022-08-26T04:08:28.149Z,71.46
2022-08-26T04:12:39.792Z,71.22
2022-08-26T04:16:52.896Z,72.00
2022-08-26T04:21:07.978Z,71.25
2022-08-26T04:25:20.658Z,71.89
2022-08-26T04:29:32.435Z,71.80
2022-08-26T04:33:46.532Z,71.96
2022-08-26T04:37:58.876Z,71.79
2022-08-26T04:42:10.391Z,71.97
2022-08-26T04:46:24.264Z,72.47
2022-08-26T04:50:35.866Z,72.34
2022-08-26T04:54:47.512Z,72.00
2022-08-26T04:59:00.407Z,71.70
2022-08-26T05:03:11.967Z,71.89
2022-08-26T05:07:23.542Z,71.30
2022-08-26T05:11:36.608Z,71.32
2022-08-26T05:15:59.143Z,71.90
2022-08-26T05:20:13.351Z,71.75
2022-08-26T05:24:27.372Z,71.20
2022-08-26T05:28:41.799Z,71.18
2022-08-26T05:32:55.431Z,70.57
2022-08-26T05:37:07.038Z,70.11
2022-08-26T05:41:23.639Z,70.27
2022-08-26T05:45:35.219Z,70.31
2022-08-26T05:49:51.462Z,70.29
2022-08-26T05:54:03.986Z,69.70
2022-08-26T05:58:17.508Z,69.79
2022-08-26T06:02:29.163Z,69.74
2022-08-26T06:06:41.642Z,68.65
2022-08-26T06:10:59.049Z,68.59
2022-08-26T06:15:11.259Z,68.34
2022-08-26T06:19:22.854Z,68.59
2022-08-26T06:23:52.957Z,67.43
2022-08-26T06:28:05.236Z,66.15
2022-08-26T06:32:17.303Z,58.46
2022-08-26T06:36:30.711Z,48.37
2022-08-26T06:40:48.725Z,43.76
2022-08-26T06:45:01.236Z,40.25
2022-08-26T06:49:13.199Z,39.26
2022-08-26T06:53:24.797Z,41.25
2022-08-26T06:57:37.660Z,40.71
2022-08-26T07:01:52.229Z,42.39
2022-08-26T07:06:04.180Z,42.66
2022-08-26T07:10:16.807Z,43.43
2022-08-26T07:14:28.371Z,45.25
2022-08-26T07:18:42.170Z,45.28
2022-08-26T07:22:58.773Z,45.35
2022-08-26T07:27:15.431Z,45.59
2022-08-26T07:31:32.512Z,45.74
2022-08-26T07:35:46.207Z,45.66
2022-08-26T07:39:58.055Z,45.46
2022-08-26T07:44:10.134Z,44.79
2022-08-26T07:48:22.067Z,44.89
2022-08-26T07:52:33.712Z,44.78
2022-08-26T07:56:46.079Z,44.91
2022-08-26T08:00:57.803Z,45.04
2022-08-26T08:05:16.051Z,45.32
2022-08-26T08:09:28.821Z,45.10
2022-08-26T08:13:40.763Z,45.02
2022-08-26T08:17:52.561Z,44.05
2022-08-26T08:22:05.202Z,43.92
2022-08-26T08:26:28.780Z,43.38
2022-08-26T08:30:41.356Z,43.24
2022-08-26T08:34:52.994Z,42.87
2022-08-26T08:39:04.557Z,43.07
2022-08-26T08:43:42.147Z,43.12
2022-08-26T08:47:57.810Z,43.13
2022-08-26T08:52:31.099Z,42.48
2022-08-26T08:56:59.859Z,42.42
2022-08-26T09:01:27.942Z,42.41
2022-08-26T09:05:48.526Z,42.12
2022-08-26T09:10:05.594Z,41.96
2022-08-26T09:14:17.643Z,41.54
2022-08-26T09:19:04.726Z,41.38
2022-08-26T09:23:17.133Z,41.06
2022-08-26T09:27:44.159Z,40.98
2022-08-26T09:32:35.131Z,40.58
2022-08-26T09:37:00.347Z,39.85
2022-08-26T09:41:31.986Z,39.80
2022-08-26T09:45:50.125Z,39.05
2022-08-26T09:50:12.490Z,39.17
2022-08-26T09:54:30.395Z,38.67
2022-08-26T09:58:47.218Z,38.64
2022-08-26T10:03:00.635Z,38.98
2022-08-26T10:07:37.538Z,37.91
2022-08-26T10:12:00.135Z,37.61
2022-08-26T10:16:20.347Z,37.98
2022-08-26T10:20:40.959Z,37.82
2022-08-26T10:25:03.766Z,37.01
2022-08-26T10:29:29.531Z,35.69
2022-08-26T10:33:42.211Z,36.54
2022-08-26T10:38:00.866Z,36.16
2022-08-26T10:42:42.567Z,36.45
2022-08-26T10:47:01.457Z,37.35
2022-08-26T10:51:25.076Z,38.32
2022-08-26T10:56:05.378Z,39.30
2022-08-26T11:00:40.521Z,39.45
2022-08-26T11:05:00.848Z,38.92
2022-08-26T11:09:45.838Z,37.83
2022-08-26T11:13:57.665Z,37.71
2022-08-26T11:18:12.084Z,37.65
2022-08-26T11:22:47.353Z,37.54
2022-08-26T11:26:59.700Z,38.23
2022-08-26T11:31:40.097Z,37.47
2022-08-26T11:35:52.193Z,38.22
2022-08-26T11:40:08.791Z,38.78
2022-08-26T11:44:25.693Z,39.07
2022-08-26T11:48:42.921Z,39.13
2022-08-26T11:53:02.005Z,39.20
2022-08-26T11:57:14.015Z,38.00
2022-08-26T12:01:42.846Z,37.61
2022-08-26T12:05:55.097Z,37.77
2022-08-26T12:10:10.599Z,38.02
2022-08-26T12:14:25.311Z,38.45
2022-08-26T12:18:39.259Z,38.35
2022-08-26T12:22:50.872Z,38.20
2022-08-26T12:27:21.448Z,38.65
2022-08-26T12:31:39.991Z,38.67
2022-08-26T12:35:56.720Z,38.66
2022-08-26T12:40:30.448Z,39.02
2022-08-26T12:44:54.324Z,38.60
2022-08-26T12:49:06.194Z,38.82
2022-08-26T12:53:23.533Z,39.04
2022-08-26T12:57:37.474Z,39.06
2022-08-26T13:01:49.531Z,38.36
2022-08-26T13:06:22.472Z,37.78
2022-08-26T13:10:38.018Z,37.65
2022-08-26T13:14:50.793Z,36.33
2022-08-26T13:19:06.217Z,36.44
2022-08-26T13:23:23.686Z,36.94
2022-08-26T13:27:35.265Z,36.92
2022-08-26T13:31:49.484Z,37.61
2022-08-26T13:36:01.096Z,37.33
2022-08-26T13:40:13.182Z,37.52
2022-08-26T13:44:24.786Z,36.97
2022-08-26T13:48:36.647Z,37.37
2022-08-26T13:52:51.482Z,36.86
2022-08-26T13:57:03.271Z,37.70
2022-08-26T14:01:16.044Z,37.73
2022-08-26T14:05:28.184Z,38.16
2022-08-26T14:09:39.772Z,38.49
2022-08-26T14:13:51.333Z,38.96
2022-08-26T14:18:04.481Z,38.96
2022-08-26T14:22:21.791Z,38.82
2022-08-26T14:26:33.410Z,38.28
2022-08-26T14:30:50.411Z,39.03
2022-08-26T14:35:02.187Z,38.16
2022-08-26T14:39:14.553Z,38.57
2022-08-26T14:43:26.224Z,38.98
2022-08-26T14:47:37.742Z,39.40
2022-08-26T14:51:49.813Z,38.99
2022-08-26T14:56:01.443Z,38.89
2022-08-26T15:00:13.378Z,40.32
2022-08-26T15:04:25.196Z,40.88
2022-08-26T15:08:37.269Z,38.72
2022-08-26T15:12:49.549Z,40.29
2022-08-26T15:17:01.142Z,41.67
2022-08-26T15:21:12.695Z,42.10
2022-08-26T15:25:24.296Z,46.14
2022-08-26T15:29:36.251Z,57.39
2022-08-26T15:33:48.447Z,73.15
2022-08-26T15:38:00.174Z,88.42
2022-08-26T15:42:11.998Z,75.84
2022-08-26T15:46:24.433Z,83.14
2022-08-26T15:50:36.283Z,88.58
2022-08-26T15:54:47.785Z,86.90
2022-08-26T15:59:02.595Z,84.92
2022-08-26T16:03:14.579Z,84.03
2022-08-26T16:07:26.371Z,87.41
2022-08-26T16:11:37.967Z,86.18
2022-08-26T16:15:49.568Z,78.86
2022-08-26T16:20:01.164Z,79.96
2022-08-26T16:24:12.822Z,83.74
2022-08-26T16:28:25.058Z,90.06
2022-08-26T16:32:37.917Z,91.43
2022-08-26T16:36:49.499Z,86.92
2022-08-26T16:41:01.365Z,91.40
2022-08-26T16:45:12.895Z,88.83
2022-08-26T16:49:24.416Z,91.81
2022-08-26T16:53:38.075Z,91.64
2022-08-26T16:57:51.093Z,88.81
2022-08-26T17:02:02.967Z,88.82
2022-08-26T17:06:14.539Z,90.17
2022-08-26T17:10:28.766Z,90.15
2022-08-26T17:14:40.351Z,91.21
2022-08-26T17:18:51.986Z,91.21
2022-08-26T17:23:03.634Z,88.88
2022-08-26T17:27:15.293Z,89.72
2022-08-26T17:31:26.934Z,91.38
2022-08-26T17:35:38.599Z,90.30
2022-08-26T17:39:50.178Z,91.04
2022-08-26T17:44:01.748Z,88.20
2022-08-26T17:48:13.344Z,87.24
2022-08-26T17:52:24.882Z,88.21
2022-08-26T17:56:36.465Z,88.75
2022-08-26T18:00:51.278Z,89.31
2022-08-26T18:05:02.894Z,88.15
2022-08-26T18:09:14.490Z,88.63
2022-08-26T18:13:26.083Z,89.43
2022-08-26T18:17:41.592Z,89.04
2022-08-26T18:21:53.302Z,88.26
2022-08-26T18:26:04.903Z,89.57
2022-08-26T18:30:20.699Z,92.28
2022-08-26T18:34:33.968Z,92.89
2022-08-26T18:38:47.221Z,91.76
2022-08-26T18:43:02.395Z,92.98
2022-08-26T18:47:14.751Z,93.43
2022-08-26T18:51:31.672Z,93.12
2022-08-26T18:55:43.205Z,92.72
2022-08-26T18:59:55.481Z,93.79
2022-08-26T19:04:08.998Z,92.64
2022-08-26T19:08:27.252Z,94.27
2022-08-26T19:12:38.791Z,93.87
2022-08-26T19:16:52.812Z,94.65
2022-08-26T19:21:04.423Z,93.63
2022-08-26T19:25:16.056Z,93.55
2022-08-26T19:29:35.108Z,94.62
2022-08-26T19:33:46.956Z,94.24
2022-08-26T19:37:58.484Z,94.78
2022-08-26T19:42:10.019Z,94.19
2022-08-26T19:46:23.083Z,94.42
2022-08-26T19:50:35.202Z,94.92
2022-08-26T19:54:46.754Z,94.78
2022-08-26T19:58:58.341Z,95.46
2022-08-26T20:03:10.725Z,95.31
2022-08-26T20:07:27.983Z,94.85
2022-08-26T20:11:40.277Z,95.07
2022-08-26T20:15:51.815Z,94.71
2022-08-26T20:20:32.751Z,94.98
2022-08-26T20:24:46.133Z,94.92
2022-08-26T20:28:58.299Z,94.48
2022-08-26T20:33:09.820Z,93.78
2022-08-26T20:37:21.876Z,93.29
2022-08-26T20:41:33.445Z,94.22
2022-08-26T20:45:45.212Z,93.41
2022-08-26T20:49:56.785Z,93.90
2022-08-26T20:54:08.872Z,93.61
2022-08-26T20:58:23.782Z,94.80
2022-08-26T21:02:35.420Z,93.59
2022-08-26T21:06:52.483Z,94.66
2022-08-26T21:11:05.604Z,93.24
2022-08-26T21:15:19.355Z,93.58
2022-08-26T21:19:30.933Z,94.52
2022-08-26T21:23:42.485Z,94.13
2022-08-26T21:27:54.026Z,94.39
2022-08-26T22:53:42.171Z,97.64
2022-08-26T22:57:53.930Z,95.33
